Aérodrome :
LOGIN :

S'inscrire | Disclaimer

   EN    FR    IT 

 










Légende :    VFR   VFR Marginal   IFR   IFR Intensif   IFR Très Intensif
Visi : 
Plafond : 
>= 8 km
>= 3000ft
5 à 8 km
1000 à 3000 ft
1500m à 5 km
500 à 1000 ft
800 à 1500m
200 à 500 ft
< 800m
< 200 ft
Symboles :   Orages  Brouillard  Fortes neiges  Fortes précipitations  Vent > 20 kt
SIGMETs :   Divers  Orages  Givrage  Turbulence  Onde Orograph.  Cendres Volcan.






- Altitude de l'aérodrome : 239 ft
- Code IATA : VRN


LIPX - Villafranca Int. Verona

DERNIER METAR :
  • 161850Z 07006KT 030V100 9999 SCT050 21/19 Q1013

METARs EXPIRÉS :
  • 161820Z 08004KT 040V100 9999 FEW025 SCT060 21/18 Q1013
  • 161750Z 08004KT 9999 FEW025 SCT075 22/18 Q1013
  • 161720Z 10004KT 070V130 9999 FEW020 SCT070 22/18 Q1013
  • 161650Z 08005KT 9999 BKN070 23/18 Q1013
  • 161620Z 12004KT 9999 BKN065 23/18 Q1014

TAF TAF LIPX
Valide du 16 à 18h jusqu'au 17 à 18h UTC


161700Z 1618/1718 VRB05KT 6000 SCT025 BKN050
TEMPO 1618/1702 4000 TSRA
TEMPO 1702/1706 3000 BR
TEMPO 1714/1718 TSRA



MET'MAP, la Météo Aéronautique d'un coup d'oeil ! - Copyright ORBIFLY Décembre 2007 - Disclaimer

ORBIFLY MET'MAP TEAM :

Programmation & Développement : Alexandra Zaïnal
Sur une idée originale de : Baudouin d'Aumeries
Assistance à la programmation : Marc-Olivier Méhu
Soutien technique & logistique : Manuel Goepfert

Contact : metmap@orbifly.com




SOURCES & CREDITS :

   NOAA